createdAt,value
2018-05-02T00:00:36.700Z,12.40
2018-05-02T00:03:05.603Z,12.40
2018-05-02T00:05:34.504Z,12.40
2018-05-02T00:08:03.379Z,12.30
2018-05-02T00:10:32.298Z,12.30
2018-05-02T00:13:01.188Z,12.20
2018-05-02T00:15:30.057Z,12.30
2018-05-02T00:17:58.965Z,12.30
2018-05-02T00:20:27.887Z,12.30
2018-05-02T00:22:57.520Z,12.40
2018-05-02T00:25:26.392Z,12.30
2018-05-02T00:27:55.314Z,12.30
2018-05-02T00:30:24.191Z,12.20
2018-05-02T00:32:53.871Z,12.00
2018-05-02T00:35:23.555Z,12.00
2018-05-02T00:37:52.428Z,12.00
2018-05-02T00:40:21.336Z,12.00
2018-05-02T00:42:50.973Z,11.90
2018-05-02T00:45:21.125Z,11.80
2018-05-02T00:47:50.767Z,11.80
2018-05-02T00:50:19.652Z,11.80
2018-05-02T00:52:48.545Z,11.80
2018-05-02T00:55:17.527Z,11.70
2018-05-02T00:57:46.395Z,11.50
2018-05-02T01:00:16.197Z,11.50
2018-05-02T01:02:45.074Z,11.40
2018-05-02T01:05:13.935Z,11.30
2018-05-02T01:07:42.844Z,11.40
2018-05-02T01:10:12.512Z,11.30
2018-05-02T01:12:41.398Z,11.30
2018-05-02T01:15:10.276Z,11.30
2018-05-02T01:17:39.145Z,11.40
2018-05-02T01:20:08.050Z,11.30
2018-05-02T01:22:36.914Z,11.40
2018-05-02T01:25:06.546Z,11.40
2018-05-02T01:27:35.464Z,11.40
2018-05-02T01:30:04.351Z,11.30
2018-05-02T01:32:34.018Z,11.10
2018-05-02T01:35:02.905Z,11.10
2018-05-02T01:37:31.777Z,11.10
2018-05-02T01:40:00.679Z,11.00
2018-05-02T01:42:29.572Z,11.10
2018-05-02T01:44:58.443Z,11.10
2018-05-02T01:47:27.307Z,11.20
2018-05-02T01:49:56.207Z,11.30
2018-05-02T01:52:25.073Z,11.40
2018-05-02T01:54:53.936Z,11.50
2018-05-02T01:57:22.829Z,11.50
2018-05-02T01:59:51.726Z,11.60
2018-05-02T02:02:21.403Z,11.80
2018-05-02T02:04:50.288Z,11.80
2018-05-02T02:07:19.160Z,11.80
2018-05-02T02:09:48.090Z,11.80
2018-05-02T02:12:17.787Z,11.80
2018-05-02T02:14:48.637Z,11.80
2018-05-02T02:17:17.621Z,11.70
2018-05-02T02:19:46.483Z,11.70
2018-05-02T02:22:15.364Z,11.60
2018-05-02T02:24:44.228Z,11.50
2018-05-02T02:27:13.115Z,11.50
2018-05-02T02:29:42.008Z,11.50
2018-05-02T02:32:10.874Z,11.60
2018-05-02T02:34:39.777Z,11.60
2018-05-02T02:37:08.644Z,11.60
2018-05-02T02:39:37.511Z,11.60
2018-05-02T02:42:06.425Z,11.70
2018-05-02T02:44:36.068Z,11.70
2018-05-02T02:47:04.942Z,11.70
2018-05-02T02:49:33.846Z,11.70
2018-05-02T02:52:03.500Z,11.80
2018-05-02T02:54:32.407Z,11.70
2018-05-02T02:57:01.285Z,11.80
2018-05-02T02:59:30.183Z,11.80
2018-05-02T03:01:59.885Z,11.90
2018-05-02T03:04:28.756Z,11.90
2018-05-02T03:06:58.392Z,12.00
2018-05-02T03:09:27.294Z,12.00
2018-05-02T03:11:56.204Z,12.00
2018-05-02T03:14:26.275Z,12.00
2018-05-02T03:16:55.331Z,12.00
2018-05-02T03:19:24.229Z,12.00
2018-05-02T03:21:53.099Z,12.00
2018-05-02T03:24:21.969Z,11.90
2018-05-02T03:26:50.874Z,11.90
2018-05-02T03:29:20.520Z,11.80
2018-05-02T03:31:49.394Z,11.70
2018-05-02T03:34:18.282Z,11.70
2018-05-02T03:36:47.147Z,11.70
2018-05-02T03:39:16.013Z,11.60
2018-05-02T03:41:44.931Z,11.50
2018-05-02T03:44:14.555Z,11.50
2018-05-02T03:46:43.435Z,11.50
2018-05-02T03:49:12.340Z,11.50
2018-05-02T03:51:41.235Z,11.50
2018-05-02T03:54:10.163Z,11.60
2018-05-02T03:56:39.043Z,11.50
2018-05-02T03:59:07.920Z,11.50
2018-05-02T04:01:54.562Z,11.50
2018-05-02T04:04:42.005Z,11.50
2018-05-02T04:07:14.920Z,11.50
2018-05-02T04:09:43.798Z,11.50
2018-05-02T04:12:12.706Z,11.50
2018-05-02T04:14:42.365Z,11.50
2018-05-02T04:17:11.244Z,11.50
2018-05-02T04:19:40.139Z,11.70
2018-05-02T04:22:09.782Z,11.80
2018-05-02T04:24:38.677Z,11.80
2018-05-02T04:27:07.575Z,11.90
2018-05-02T04:29:37.226Z,12.30
2018-05-02T04:32:06.099Z,12.30
2018-05-02T04:34:35.002Z,12.70
2018-05-02T04:37:03.897Z,13.10
2018-05-02T04:39:33.564Z,13.60
2018-05-02T04:42:02.437Z,13.60
2018-05-02T04:44:31.318Z,14.10
2018-05-02T04:47:00.228Z,14.50
2018-05-02T04:49:29.111Z,14.80
2018-05-02T04:51:57.982Z,15.20
2018-05-02T04:54:26.889Z,15.40
2018-05-02T04:56:55.806Z,15.60
2018-05-02T04:59:25.517Z,16.40
2018-05-02T05:01:54.367Z,16.40
2018-05-02T05:04:23.264Z,16.80
2018-05-02T05:06:52.135Z,17.10
2018-05-02T05:09:21.053Z,17.10
2018-05-02T05:11:49.928Z,16.90
2018-05-02T05:14:20.011Z,16.80
2018-05-02T05:16:48.967Z,16.60
2018-05-02T05:19:17.835Z,16.50
2018-05-02T05:21:47.494Z,16.00
2018-05-02T05:24:16.394Z,16.00
2018-05-02T05:26:46.043Z,15.40
2018-05-02T05:29:14.951Z,15.40
2018-05-02T05:31:43.815Z,15.20
2018-05-02T05:34:12.698Z,15.20
2018-05-02T05:36:41.595Z,15.20
2018-05-02T05:39:11.232Z,15.50
2018-05-02T05:41:40.108Z,15.50
2018-05-02T05:44:09.036Z,15.70
2018-05-02T05:46:38.675Z,16.20
2018-05-02T05:49:07.545Z,16.20
2018-05-02T05:51:36.452Z,16.70
2018-05-02T05:54:05.364Z,17.10
2018-05-02T05:56:34.267Z,17.70
2018-05-02T05:59:03.141Z,18.20
2018-05-02T06:01:32.058Z,18.50
2018-05-02T06:04:00.924Z,18.80
2018-05-02T06:06:29.792Z,19.20
2018-05-02T06:08:59.450Z,19.50
2018-05-02T06:11:28.329Z,19.50
2018-05-02T06:13:57.221Z,19.50
2018-05-02T06:16:26.104Z,19.50
2018-05-02T06:18:54.997Z,19.50
2018-05-02T06:21:23.876Z,19.70
2018-05-02T06:23:53.616Z,20.20
2018-05-02T06:26:22.483Z,20.10
2018-05-02T06:28:51.353Z,20.60
2018-05-02T06:31:20.255Z,20.60
2018-05-02T06:33:49.672Z,20.90
2018-05-02T06:36:18.548Z,21.10
2018-05-02T06:38:47.440Z,21.40
2018-05-02T06:41:17.111Z,21.70
2018-05-02T06:43:45.995Z,21.70
2018-05-02T06:46:15.960Z,22.10
2018-05-02T06:48:44.859Z,22.00
2018-05-02T06:51:13.735Z,21.90
2018-05-02T06:53:42.600Z,21.80
2018-05-02T06:56:11.519Z,22.00
2018-05-02T06:58:41.196Z,22.40
2018-05-02T07:01:10.063Z,22.40
2018-05-02T07:03:38.934Z,22.20
2018-05-02T07:06:07.828Z,22.20
2018-05-02T07:08:37.467Z,22.50
2018-05-02T07:11:06.375Z,22.50
2018-05-02T07:13:35.248Z,22.50
2018-05-02T07:16:04.935Z,22.20
2018-05-02T07:18:33.847Z,22.20
2018-05-02T07:21:03.503Z,22.20
2018-05-02T07:23:32.379Z,22.20
2018-05-02T07:26:01.307Z,22.10
2018-05-02T07:28:30.214Z,22.00
2018-05-02T07:30:59.083Z,22.20
2018-05-02T07:33:27.955Z,22.60
2018-05-02T07:35:56.871Z,23.00
2018-05-02T07:38:25.740Z,23.50
2018-05-02T07:40:54.610Z,23.60
2018-05-02T07:43:23.515Z,23.70
2018-05-02T07:45:53.171Z,23.70
2018-05-02T07:48:22.059Z,23.70
2018-05-02T07:50:50.947Z,23.40
2018-05-02T07:53:20.584Z,22.90
2018-05-02T07:55:49.480Z,22.90
2018-05-02T07:58:18.358Z,22.90
2018-05-02T08:00:47.247Z,22.90
2018-05-02T08:03:16.141Z,23.10
2018-05-02T08:05:45.795Z,23.40
2018-05-02T08:08:14.688Z,23.40
2018-05-02T08:10:43.556Z,23.80
2018-05-02T08:13:13.253Z,24.30
2018-05-02T08:15:42.117Z,24.30
2018-05-02T08:18:11.004Z,24.30
2018-05-02T08:20:39.899Z,24.50
2018-05-02T08:23:08.835Z,24.50
2018-05-02T08:25:37.717Z,24.60
2018-05-02T08:28:06.591Z,24.60
2018-05-02T08:30:35.499Z,24.60
2018-05-02T08:33:05.147Z,24.80
2018-05-02T08:35:34.019Z,24.80
2018-05-02T08:38:02.912Z,24.80
2018-05-02T08:40:31.780Z,24.30
2018-05-02T08:43:00.672Z,24.10
2018-05-02T08:45:29.566Z,24.20
2018-05-02T08:47:59.208Z,24.20
2018-05-02T08:50:28.109Z,24.20
2018-05-02T08:52:56.998Z,24.30
2018-05-02T08:55:25.887Z,24.40
2018-05-02T08:57:55.515Z,24.40
2018-05-02T09:00:24.404Z,24.40
2018-05-02T09:02:53.335Z,24.40
2018-05-02T09:05:22.219Z,24.30
2018-05-02T09:07:51.091Z,24.10
2018-05-02T09:10:20.015Z,23.70
2018-05-02T09:12:48.899Z,23.40
2018-05-02T09:15:18.105Z,23.20
2018-05-02T09:17:47.763Z,22.60
2018-05-02T09:20:16.667Z,22.60
2018-05-02T09:22:46.311Z,22.50
2018-05-02T09:25:15.185Z,22.50
2018-05-02T09:27:44.081Z,22.60
2018-05-02T09:30:12.947Z,22.50
2018-05-02T09:32:41.867Z,22.40
2018-05-02T09:35:10.744Z,22.30
2018-05-02T09:37:40.376Z,22.20
2018-05-02T09:40:09.291Z,22.20
2018-05-02T09:42:38.180Z,22.20
2018-05-02T09:45:07.822Z,22.40
2018-05-02T09:47:36.723Z,22.40
2018-05-02T09:50:05.600Z,22.40
2018-05-02T09:52:34.512Z,22.50
2018-05-02T09:55:03.416Z,22.70
2018-05-02T09:57:32.291Z,22.80
2018-05-02T10:00:01.213Z,22.80
2018-05-02T10:02:30.090Z,22.80
2018-05-02T10:04:58.970Z,23.00
2018-05-02T10:07:28.627Z,22.90
2018-05-02T10:09:57.519Z,22.90
2018-05-02T10:12:26.435Z,22.80
2018-05-02T10:14:55.291Z,22.70
2018-05-02T10:17:24.955Z,22.40
2018-05-02T10:19:53.825Z,22.40
2018-05-02T10:22:24.238Z,22.50
2018-05-02T10:24:53.109Z,22.50
2018-05-02T10:27:21.989Z,22.60
2018-05-02T10:29:50.898Z,22.60
2018-05-02T10:32:20.541Z,22.80
2018-05-02T10:34:49.413Z,22.80
2018-05-02T10:37:18.311Z,22.80
2018-05-02T10:39:47.183Z,22.80
2018-05-02T10:42:16.055Z,22.80
2018-05-02T10:44:44.944Z,22.90
2018-05-02T10:47:13.816Z,22.80
2018-05-02T10:49:42.722Z,22.80
2018-05-02T10:52:11.617Z,22.80
2018-05-02T10:54:40.488Z,22.70
2018-05-02T10:57:09.399Z,22.70
2018-05-02T10:59:39.805Z,22.50
2018-05-02T11:02:08.719Z,22.50
2018-05-02T11:04:37.596Z,22.60
2018-05-02T11:07:07.252Z,22.80
2018-05-02T11:09:36.154Z,22.70
2018-05-02T11:12:05.788Z,22.70
2018-05-02T11:14:34.700Z,22.70
2018-05-02T11:17:03.584Z,22.70
2018-05-02T11:19:32.463Z,22.80
2018-05-02T11:22:01.382Z,22.90
2018-05-02T11:24:30.262Z,23.00
2018-05-02T11:26:59.186Z,23.10
2018-05-02T11:29:28.058Z,23.00
2018-05-02T11:31:56.971Z,23.00
2018-05-02T11:34:25.903Z,22.90
2018-05-02T11:36:54.818Z,22.90
2018-05-02T11:39:23.695Z,22.90
2018-05-02T11:41:52.591Z,23.00
2018-05-02T11:44:21.462Z,23.10
2018-05-02T11:46:50.343Z,23.00
2018-05-02T11:49:19.255Z,23.00
2018-05-02T11:51:48.124Z,23.00
2018-05-02T11:54:16.999Z,23.00
2018-05-02T11:56:45.882Z,23.10
2018-05-02T11:59:14.774Z,23.10
2018-05-02T12:01:44.464Z,23.00
2018-05-02T12:04:14.137Z,23.10
2018-05-02T12:06:43.034Z,23.10
2018-05-02T12:09:12.668Z,23.50
2018-05-02T12:11:41.564Z,23.40
2018-05-02T12:14:10.436Z,23.60
2018-05-02T12:16:39.332Z,23.70
2018-05-02T12:19:08.242Z,23.80
2018-05-02T12:21:37.128Z,23.90
2018-05-02T12:24:06.005Z,24.00
2018-05-02T12:26:34.966Z,24.00
2018-05-02T12:29:03.841Z,24.00
2018-05-02T12:31:32.723Z,23.90
2018-05-02T12:34:01.636Z,23.90
2018-05-02T12:36:30.507Z,23.80
2018-05-02T12:38:59.380Z,23.80
2018-05-02T12:41:28.272Z,23.80
2018-05-02T12:43:57.171Z,23.80
2018-05-02T12:46:26.852Z,23.90
2018-05-02T12:48:55.732Z,23.80
2018-05-02T12:51:25.372Z,23.70
2018-05-02T12:53:54.273Z,23.70
2018-05-02T12:56:23.199Z,23.70
2018-05-02T12:58:52.075Z,23.70
2018-05-02T13:01:20.952Z,23.70
2018-05-02T13:03:49.857Z,23.60
2018-05-02T13:06:18.735Z,23.50
2018-05-02T13:08:47.684Z,23.40
2018-05-02T13:11:16.556Z,23.30
2018-05-02T13:13:45.431Z,23.20
2018-05-02T13:16:14.343Z,23.20
2018-05-02T13:18:43.225Z,23.20
2018-05-02T13:21:12.087Z,23.20
2018-05-02T13:23:40.995Z,23.10
2018-05-02T13:26:09.867Z,23.10
2018-05-02T13:28:38.738Z,23.20
2018-05-02T13:31:07.648Z,23.20
2018-05-02T13:33:36.538Z,23.30
2018-05-02T13:36:05.427Z,23.30
2018-05-02T13:38:34.315Z,23.30
2018-05-02T13:41:03.230Z,23.30
2018-05-02T13:43:32.871Z,23.30
2018-05-02T13:46:01.746Z,23.30
2018-05-02T13:48:30.670Z,23.40
2018-05-02T13:51:00.316Z,23.50
2018-05-02T13:53:29.188Z,23.50
2018-05-02T13:55:58.084Z,23.50
2018-05-02T13:58:26.972Z,23.60
2018-05-02T14:00:55.933Z,23.60
2018-05-02T14:03:25.651Z,23.60
2018-05-02T14:05:55.290Z,23.70
2018-05-02T14:08:24.339Z,23.70
2018-05-02T14:10:53.874Z,23.70
2018-05-02T14:13:22.765Z,23.70
2018-05-02T14:15:51.768Z,23.70
2018-05-02T14:18:21.359Z,23.70
2018-05-02T14:20:51.034Z,23.70
2018-05-02T14:23:19.928Z,23.60
2018-05-02T14:25:49.579Z,23.60
2018-05-02T14:28:18.472Z,23.60
2018-05-02T14:30:47.345Z,23.50
2018-05-02T14:33:16.248Z,23.40
2018-05-02T14:35:45.136Z,23.30
2018-05-02T14:38:14.039Z,23.20
2018-05-02T14:40:42.954Z,23.10
2018-05-02T14:43:11.832Z,23.10
2018-05-02T14:45:40.760Z,23.10
2018-05-02T14:48:09.648Z,23.00
2018-05-02T14:50:38.549Z,23.10
2018-05-02T14:53:07.427Z,23.10
2018-05-02T14:55:36.319Z,23.20
2018-05-02T14:58:05.204Z,23.20
2018-05-02T15:00:34.864Z,23.30
2018-05-02T15:03:03.746Z,23.30
2018-05-02T15:05:32.664Z,23.40
2018-05-02T15:08:01.547Z,23.40
2018-05-02T15:10:30.415Z,23.40
2018-05-02T15:12:59.322Z,23.40
2018-05-02T15:15:28.199Z,23.40
2018-05-02T15:17:57.179Z,23.40
2018-05-02T15:20:26.072Z,23.30
2018-05-02T15:22:54.946Z,23.30
2018-05-02T15:25:23.876Z,23.30
2018-05-02T15:27:52.760Z,23.30
2018-05-02T15:30:21.631Z,23.20
2018-05-02T15:32:50.527Z,23.20
2018-05-02T15:35:19.423Z,23.20
2018-05-02T15:37:48.319Z,23.20
2018-05-02T15:40:18.055Z,23.20
2018-05-02T15:42:46.882Z,23.20
2018-05-02T15:45:15.775Z,23.10
2018-05-02T15:47:44.702Z,23.10
2018-05-02T15:50:13.604Z,23.10
2018-05-02T15:52:43.255Z,23.00
2018-05-02T15:55:12.228Z,23.00
2018-05-02T15:57:41.125Z,23.00
2018-05-02T16:00:10.030Z,23.00
2018-05-02T16:02:39.691Z,23.20
2018-05-02T16:05:08.587Z,23.20
2018-05-02T16:07:37.483Z,23.20
2018-05-02T16:10:06.396Z,23.30
2018-05-02T16:12:36.035Z,23.40
2018-05-02T16:15:06.078Z,23.50
2018-05-02T16:17:34.943Z,23.40
2018-05-02T16:20:03.887Z,23.50
2018-05-02T16:22:33.526Z,23.50
2018-05-02T16:25:02.415Z,23.50
2018-05-02T16:27:31.335Z,23.50
2018-05-02T16:30:00.987Z,23.40
2018-05-02T16:32:29.879Z,23.30
2018-05-02T16:34:58.803Z,23.30
2018-05-02T16:37:27.682Z,23.20
2018-05-02T16:39:56.585Z,23.10
2018-05-02T16:42:25.591Z,23.00
2018-05-02T16:44:54.551Z,22.80
2018-05-02T16:47:23.408Z,22.70
2018-05-02T16:49:52.362Z,22.60
2018-05-02T16:52:21.198Z,22.50
2018-05-02T16:54:50.863Z,22.30
2018-05-02T16:57:19.735Z,22.30
2018-05-02T16:59:48.659Z,22.30
2018-05-02T17:02:17.568Z,22.30
2018-05-02T17:04:46.459Z,22.30
2018-05-02T17:07:15.532Z,22.20
2018-05-02T17:09:44.501Z,22.20
2018-05-02T17:12:14.192Z,22.10
2018-05-02T17:14:43.111Z,22.10
2018-05-02T17:17:12.043Z,22.10
2018-05-02T17:19:41.308Z,22.10
2018-05-02T17:22:10.258Z,22.00
2018-05-02T17:24:39.095Z,22.00
2018-05-02T17:27:08.921Z,21.90
2018-05-02T17:29:37.801Z,21.90
2018-05-02T17:32:07.481Z,21.80
2018-05-02T17:34:36.399Z,21.80
2018-05-02T17:37:05.266Z,21.70
2018-05-02T17:39:34.194Z,21.60
2018-05-02T17:42:03.087Z,21.60
2018-05-02T17:44:32.743Z,21.30
2018-05-02T17:47:02.423Z,21.10
2018-05-02T17:49:31.287Z,21.10
2018-05-02T17:52:00.174Z,21.00
2018-05-02T17:54:29.074Z,20.90
2018-05-02T17:56:57.995Z,20.70
2018-05-02T17:59:26.875Z,20.70
2018-05-02T18:01:55.846Z,20.60
2018-05-02T18:04:24.747Z,20.50
2018-05-02T18:06:53.681Z,20.50
2018-05-02T18:09:22.885Z,20.40
2018-05-02T18:11:51.838Z,20.40
2018-05-02T18:14:21.808Z,20.30
2018-05-02T18:16:51.490Z,20.30
2018-05-02T18:19:20.372Z,20.20
2018-05-02T18:21:49.267Z,20.20
2018-05-02T18:24:18.139Z,20.00
2018-05-02T18:26:47.040Z,19.80
2018-05-02T18:29:15.988Z,19.70
2018-05-02T18:31:44.920Z,19.40
2018-05-02T18:34:13.943Z,19.30
2018-05-02T18:36:42.814Z,19.10
2018-05-02T18:39:11.687Z,19.10
2018-05-02T18:41:40.588Z,19.00
2018-05-02T18:44:10.230Z,18.90
2018-05-02T18:46:39.328Z,18.90
2018-05-02T18:49:08.204Z,18.80
2018-05-02T18:51:37.127Z,18.80
2018-05-02T18:54:06.007Z,18.70
2018-05-02T18:56:34.883Z,18.60
2018-05-02T18:59:03.807Z,18.50
2018-05-02T19:01:32.687Z,18.50
2018-05-02T19:04:01.599Z,18.50
2018-05-02T19:06:30.996Z,18.40
2018-05-02T19:08:59.871Z,18.30
2018-05-02T19:11:28.752Z,18.30
2018-05-02T19:14:01.561Z,18.30
2018-05-02T19:16:30.441Z,18.20
2018-05-02T19:19:04.753Z,18.10
2018-05-02T19:21:33.634Z,18.10
2018-05-02T19:24:03.381Z,17.90
2018-05-02T19:26:37.279Z,17.90
2018-05-02T19:29:06.249Z,17.80
2018-05-02T19:31:41.320Z,17.70
2018-05-02T19:34:11.050Z,17.60
2018-05-02T19:36:39.924Z,17.60
2018-05-02T19:39:08.942Z,17.50
2018-05-02T19:41:43.212Z,17.50
2018-05-02T19:44:12.132Z,17.60
2018-05-02T19:46:41.803Z,17.60
2018-05-02T19:49:10.688Z,17.50
2018-05-02T19:51:45.175Z,17.50
2018-05-02T19:54:14.078Z,17.40
2018-05-02T19:56:42.984Z,17.40
2018-05-02T19:59:11.884Z,17.40
2018-05-02T20:01:46.439Z,17.40
2018-05-02T20:04:15.359Z,17.40
2018-05-02T20:06:44.239Z,17.40
2018-05-02T20:09:18.936Z,17.30
2018-05-02T20:11:53.334Z,17.30
2018-05-02T20:14:22.256Z,17.30
2018-05-02T20:16:51.189Z,17.30
2018-05-02T20:19:20.088Z,17.30
2018-05-02T20:21:49.003Z,17.40
2018-05-02T20:24:18.673Z,17.50
2018-05-02T20:26:47.590Z,17.60
2018-05-02T20:29:17.229Z,17.60
2018-05-02T20:31:46.120Z,17.60
2018-05-02T20:34:15.037Z,17.70
2018-05-02T20:36:43.938Z,17.80
2018-05-02T20:39:12.854Z,17.70
2018-05-02T20:41:41.735Z,17.60
2018-05-02T20:44:10.655Z,17.50
2018-05-02T20:46:39.578Z,17.50
2018-05-02T20:49:08.457Z,17.60
2018-05-02T20:51:37.344Z,17.70
2018-05-02T20:54:06.259Z,17.70
2018-05-02T20:56:35.146Z,18.10
2018-05-02T20:59:04.083Z,18.30
2018-05-02T21:01:33.716Z,17.70
2018-05-02T21:04:02.594Z,17.60
2018-05-02T21:06:31.514Z,17.40
2018-05-02T21:09:01.168Z,17.00
2018-05-02T21:11:30.053Z,16.90
2018-05-02T21:13:59.019Z,16.60
2018-05-02T21:16:27.903Z,16.30
2018-05-02T21:18:56.784Z,16.00
2018-05-02T21:21:25.680Z,15.80
2018-05-02T21:23:55.362Z,15.50
2018-05-02T21:26:24.283Z,15.50
2018-05-02T21:28:53.159Z,15.30
2018-05-02T21:31:22.031Z,15.10
2018-05-02T21:33:50.944Z,15.00
2018-05-02T21:36:19.848Z,15.00
2018-05-02T21:38:49.492Z,14.90
2018-05-02T21:41:18.423Z,14.90
2018-05-02T21:43:47.339Z,14.90
2018-05-02T21:46:16.260Z,14.90
2018-05-02T21:48:45.159Z,14.80
2018-05-02T21:51:14.848Z,14.80
2018-05-02T21:53:44.508Z,14.90
2018-05-02T21:56:13.389Z,14.80
2018-05-02T21:58:42.287Z,14.90
2018-05-02T22:01:11.970Z,14.90
2018-05-02T22:03:41.639Z,14.80
2018-05-02T22:06:10.541Z,14.70
2018-05-02T22:08:40.228Z,14.70
2018-05-02T22:11:09.122Z,14.60
2018-05-02T22:13:38.018Z,14.70
2018-05-02T22:16:06.963Z,14.70
2018-05-02T22:18:36.620Z,14.60
2018-05-02T22:21:06.350Z,14.60
2018-05-02T22:23:35.236Z,14.60
2018-05-02T22:26:04.883Z,14.60
2018-05-02T22:28:33.795Z,14.60
2018-05-02T22:31:03.459Z,14.60
2018-05-02T22:33:32.380Z,14.60
2018-05-02T22:36:01.275Z,14.60
2018-05-02T22:38:30.150Z,14.60
2018-05-02T22:40:59.046Z,14.60
2018-05-02T22:43:27.971Z,14.60
2018-05-02T22:45:57.632Z,14.60
2018-05-02T22:48:26.516Z,14.60
2018-05-02T22:50:55.432Z,14.60
2018-05-02T22:53:24.355Z,14.60
2018-05-02T22:55:53.245Z,14.60
2018-05-02T22:58:22.936Z,14.60
2018-05-02T23:00:52.608Z,14.60
2018-05-02T23:03:21.487Z,14.60
2018-05-02T23:05:50.391Z,14.50
2018-05-02T23:08:20.063Z,14.40
2018-05-02T23:10:48.975Z,14.40
2018-05-02T23:13:17.869Z,14.40
2018-05-02T23:15:46.787Z,14.30
2018-05-02T23:18:15.723Z,14.40
2018-05-02T23:20:44.606Z,14.30
2018-05-02T23:23:13.528Z,14.30
2018-05-02T23:25:42.410Z,14.30
2018-05-02T23:28:12.082Z,14.20
2018-05-02T23:30:40.972Z,14.10
2018-05-02T23:33:10.653Z,14.10
2018-05-02T23:35:39.531Z,14.10
2018-05-02T23:38:08.411Z,14.10
2018-05-02T23:40:37.340Z,14.10
2018-05-02T23:43:06.220Z,14.10
2018-05-02T23:45:35.119Z,14.10
2018-05-02T23:48:04.036Z,14.10
2018-05-02T23:50:32.917Z,14.00
2018-05-02T23:53:01.805Z,14.00
2018-05-02T23:55:30.704Z,14.00
2018-05-02T23:57:59.584Z,14.00
